Terminal Aerodrome Forecast
Issued by NWS

Home | Current Version | Previous Version | Graphics & Text | Print | Product List | Glossary On
Versions: 1 2 3 4 5 6 7 8 9 10 11 12 13 14 15
364
FTUS41 KCLE 160539
TAFFDY
TAF
KFDY 160539Z 1606/1706 25014G22KT P6SM SCT015 BKN050
     FM160800 26015G25KT P6SM BKN015 OVC025
     FM161800 30015G25KT P6SM OVC035
     FM170000 30008KT P6SM SCT035=

USA.gov is the U.S. government's official web portal to all federal, state and local government web resources and services.